createdAt,value
2023-01-28T00:01:43.244Z,5.50
2023-01-28T00:04:12.299Z,5.92
2023-01-28T00:06:40.517Z,5.70
2023-01-28T00:09:08.892Z,6.53
2023-01-28T00:11:37.248Z,9.13
2023-01-28T00:14:05.586Z,7.67
2023-01-28T00:16:33.903Z,6.22
2023-01-28T00:19:02.221Z,6.37
2023-01-28T00:21:30.551Z,7.45
2023-01-28T00:23:58.956Z,7.22
2023-01-28T00:26:27.423Z,8.15
2023-01-28T00:28:55.596Z,8.18
2023-01-28T00:31:25.988Z,11.57
2023-01-28T00:33:55.073Z,5.87
2023-01-28T00:36:24.166Z,8.08
2023-01-28T00:38:52.988Z,8.80
2023-01-28T00:41:22.453Z,10.70
2023-01-28T00:43:51.096Z,9.38
2023-01-28T00:46:19.570Z,9.30
2023-01-28T00:48:48.031Z,8.30
2023-01-28T00:51:17.632Z,8.60
2023-01-28T00:53:45.843Z,10.70
2023-01-28T00:56:15.070Z,11.75
2023-01-28T00:58:43.481Z,11.90
2023-01-28T01:01:13.252Z,11.85
2023-01-28T01:03:41.791Z,15.05
2023-01-28T01:06:10.888Z,11.97
2023-01-28T01:08:40.747Z,10.53
2023-01-28T01:11:10.547Z,10.15
2023-01-28T01:13:38.961Z,15.43
2023-01-28T01:16:08.564Z,11.18
2023-01-28T01:18:37.458Z,9.15
2023-01-28T01:21:07.257Z,8.75
2023-01-28T01:23:35.487Z,11.53
2023-01-28T01:26:04.849Z,10.28
2023-01-28T01:28:33.525Z,12.28
2023-01-28T01:31:02.988Z,9.70
2023-01-28T01:33:31.638Z,9.93
2023-01-28T01:36:00.759Z,10.63
2023-01-28T01:38:30.331Z,11.93
2023-01-28T01:41:00.931Z,11.38
2023-01-28T01:43:59.056Z,10.90
2023-01-28T01:46:48.166Z,11.00
2023-01-28T01:49:22.619Z,9.73
2023-01-28T01:51:54.260Z,14.30
2023-01-28T01:54:25.229Z,10.83
2023-01-28T01:56:54.200Z,11.35
2023-01-28T01:59:25.825Z,9.80
2023-01-28T02:01:55.800Z,12.43
2023-01-28T02:04:27.419Z,10.90
2023-01-28T02:06:57.612Z,8.67
2023-01-28T02:09:29.572Z,7.15
2023-01-28T02:11:59.396Z,8.23
2023-01-28T02:14:31.760Z,8.63
2023-01-28T02:17:01.236Z,7.75
2023-01-28T02:19:41.724Z,7.35
2023-01-28T02:22:29.653Z,7.30
2023-01-28T02:25:03.764Z,8.65
2023-01-28T02:27:53.418Z,8.93
2023-01-28T02:30:23.153Z,6.85
2023-01-28T02:33:00.609Z,8.35
2023-01-28T02:35:38.160Z,7.42
2023-01-28T02:38:19.422Z,8.48
2023-01-28T02:41:03.014Z,6.47
2023-01-28T02:43:42.979Z,6.53
2023-01-28T02:46:41.255Z,8.35
2023-01-28T02:49:12.854Z,7.03
2023-01-28T02:51:56.168Z,6.80
2023-01-28T02:54:39.643Z,9.75
2023-01-28T02:57:23.215Z,6.80
2023-01-28T03:00:00.408Z,7.80
2023-01-28T03:02:48.416Z,7.78
2023-01-28T03:05:20.882Z,13.95
2023-01-28T03:10:20.856Z,9.25
2023-01-28T03:13:10.099Z,7.78
2023-01-28T03:16:02.070Z,10.48
2023-01-28T03:18:57.266Z,12.80
2023-01-28T03:21:49.224Z,11.85
2023-01-28T03:24:53.639Z,10.77
2023-01-28T03:27:55.001Z,11.55
2023-01-28T03:30:45.507Z,13.98
2023-01-28T03:33:32.441Z,15.75
2023-01-28T03:36:19.523Z,16.80
2023-01-28T03:38:48.479Z,19.48
2023-01-28T03:41:22.554Z,16.17
2023-01-28T03:43:51.661Z,17.85
2023-01-28T03:46:21.158Z,19.40
2023-01-28T03:48:49.744Z,20.65
2023-01-28T03:51:18.424Z,23.52
2023-01-28T03:53:46.946Z,21.77
2023-01-28T03:56:17.173Z,20.52
2023-01-28T03:58:50.362Z,23.47
2023-01-28T04:01:18.920Z,23.77
2023-01-28T04:03:47.522Z,20.72
2023-01-28T04:06:16.326Z,24.12
2023-01-28T04:08:46.497Z,28.85
2023-01-28T04:11:19.895Z,25.65
2023-01-28T04:13:49.669Z,22.35
2023-01-28T04:16:20.459Z,25.08
2023-01-28T04:18:49.011Z,21.50
2023-01-28T04:21:18.544Z,21.80
2023-01-28T04:23:47.119Z,20.88
2023-01-28T04:26:15.808Z,23.02
2023-01-28T04:28:45.023Z,24.92
2023-01-28T04:31:14.472Z,22.82
2023-01-28T04:33:45.033Z,20.57
2023-01-28T04:36:13.627Z,19.02
2023-01-28T04:38:42.384Z,19.37
2023-01-28T04:41:11.215Z,19.75
2023-01-28T04:43:39.829Z,19.95
2023-01-28T04:46:09.077Z,20.57
2023-01-28T04:48:38.319Z,20.95
2023-01-28T04:51:07.555Z,20.60
2023-01-28T04:53:36.269Z,21.12
2023-01-28T04:56:04.947Z,17.90
2023-01-28T04:58:33.485Z,19.75
2023-01-28T05:01:02.095Z,17.67
2023-01-28T05:03:30.603Z,19.48
2023-01-28T05:05:59.212Z,20.72
2023-01-28T05:08:27.788Z,19.20
2023-01-28T05:10:56.645Z,19.42
2023-01-28T05:13:25.355Z,18.70
2023-01-28T05:15:54.717Z,19.87
2023-01-28T05:18:23.301Z,19.42
2023-01-28T05:20:51.827Z,19.12
2023-01-28T05:23:20.352Z,18.00
2023-01-28T05:25:48.971Z,17.12
2023-01-28T05:28:17.709Z,18.85
2023-01-28T05:30:46.346Z,15.85
2023-01-28T05:33:14.968Z,18.23
2023-01-28T05:35:44.623Z,19.67
2023-01-28T05:38:15.334Z,18.90
2023-01-28T05:40:43.430Z,15.83
2023-01-28T05:43:12.135Z,17.80
2023-01-28T05:45:40.752Z,16.87
2023-01-28T05:48:09.479Z,14.83
2023-01-28T05:50:37.813Z,15.88
2023-01-28T05:53:09.865Z,14.93
2023-01-28T05:55:38.570Z,15.28
2023-01-28T05:58:07.107Z,14.30
2023-01-28T06:00:35.404Z,15.65
2023-01-28T06:03:03.960Z,15.45
2023-01-28T06:05:32.587Z,16.07
2023-01-28T06:08:01.165Z,17.57
2023-01-28T06:10:29.951Z,14.65
2023-01-28T06:12:58.740Z,15.90
2023-01-28T06:15:27.428Z,15.75
2023-01-28T06:17:56.085Z,12.65
2023-01-28T06:20:24.412Z,12.33
2023-01-28T06:22:53.305Z,15.50
2023-01-28T06:25:21.831Z,14.98
2023-01-28T06:27:50.398Z,16.35
2023-01-28T06:30:19.038Z,15.70
2023-01-28T06:32:47.561Z,14.65
2023-01-28T06:35:16.331Z,12.00
2023-01-28T06:37:45.440Z,13.28
2023-01-28T06:40:15.098Z,15.25
2023-01-28T06:42:43.447Z,15.13
2023-01-28T06:45:11.849Z,15.28
2023-01-28T06:47:40.288Z,16.75
2023-01-28T06:50:08.845Z,17.85
2023-01-28T06:52:37.064Z,17.62
2023-01-28T06:55:05.500Z,19.37
2023-01-28T06:57:33.943Z,16.85
2023-01-28T07:00:02.179Z,25.55
2023-01-28T07:02:30.374Z,18.60
2023-01-28T07:04:58.583Z,17.35
2023-01-28T07:07:26.814Z,17.75
2023-01-28T07:09:55.081Z,17.40
2023-01-28T07:12:23.325Z,19.45
2023-01-28T07:14:51.536Z,19.07
2023-01-28T07:17:19.941Z,17.40
2023-01-28T07:19:48.182Z,16.73
2023-01-28T07:22:16.472Z,15.32
2023-01-28T07:24:44.693Z,14.20
2023-01-28T07:27:13.011Z,12.35
2023-01-28T07:29:41.206Z,13.95
2023-01-28T07:32:09.428Z,13.75
2023-01-28T07:34:39.271Z,12.23
2023-01-28T07:37:07.497Z,16.75
2023-01-28T07:39:35.705Z,19.62
2023-01-28T07:42:04.178Z,19.23
2023-01-28T07:44:32.471Z,21.12
2023-01-28T07:47:00.709Z,18.40
2023-01-28T07:49:28.920Z,16.05
2023-01-28T07:51:57.219Z,17.20
2023-01-28T07:54:25.437Z,17.77
2023-01-28T07:56:53.687Z,16.30
2023-01-28T07:59:22.840Z,16.30
2023-01-28T08:01:52.126Z,15.53
2023-01-28T08:04:21.087Z,14.70
2023-01-28T08:06:49.698Z,16.17
2023-01-28T08:09:17.905Z,15.48
2023-01-28T08:11:46.192Z,16.57
2023-01-28T08:14:14.445Z,14.98
2023-01-28T08:16:42.747Z,17.17
2023-01-28T08:19:11.220Z,17.25
2023-01-28T08:21:39.434Z,17.35
2023-01-28T08:24:07.736Z,18.75
2023-01-28T08:26:36.213Z,18.57
2023-01-28T08:29:05.223Z,17.98
2023-01-28T08:31:33.450Z,17.52
2023-01-28T08:34:02.425Z,20.75
2023-01-28T08:36:30.699Z,15.58
2023-01-28T08:38:58.902Z,16.50
2023-01-28T08:41:27.152Z,17.05
2023-01-28T08:43:55.379Z,16.10
2023-01-28T08:46:23.641Z,16.30
2023-01-28T08:48:52.036Z,16.40
2023-01-28T08:51:20.247Z,16.87
2023-01-28T08:53:48.560Z,16.48
2023-01-28T08:56:16.839Z,14.18
2023-01-28T08:58:45.073Z,16.77
2023-01-28T09:01:13.322Z,22.05
2023-01-28T09:03:41.559Z,15.18
2023-01-28T09:06:09.730Z,15.70
2023-01-28T09:08:38.224Z,16.00
2023-01-28T09:11:06.511Z,15.75
2023-01-28T09:13:34.731Z,14.50
2023-01-28T09:16:04.507Z,14.43
2023-01-28T09:18:32.815Z,14.40
2023-01-28T09:21:01.027Z,16.40
2023-01-28T09:23:29.259Z,17.82
2023-01-28T09:26:01.148Z,16.50
2023-01-28T09:28:30.116Z,16.87
2023-01-28T09:31:05.196Z,17.23
2023-01-28T09:33:33.956Z,14.30
2023-01-28T09:36:03.162Z,15.83
2023-01-28T09:38:31.925Z,15.05
2023-01-28T09:41:00.913Z,15.80
2023-01-28T09:43:30.716Z,16.80
2023-01-28T09:46:00.466Z,17.02
2023-01-28T09:48:31.902Z,20.57
2023-01-28T09:51:01.444Z,24.02
2023-01-28T09:53:31.560Z,18.55
2023-01-28T09:56:01.493Z,15.75
2023-01-28T09:58:29.711Z,16.27
2023-01-28T10:01:14.518Z,17.20
2023-01-28T10:03:44.265Z,15.18
2023-01-28T10:06:16.946Z,18.77
2023-01-28T10:08:52.360Z,20.45
2023-01-28T10:11:38.620Z,22.37
2023-01-28T10:14:08.364Z,24.52
2023-01-28T10:16:41.044Z,24.57
2023-01-28T10:19:15.983Z,21.07
2023-01-28T10:21:59.604Z,19.82
2023-01-28T10:24:32.341Z,19.12
2023-01-28T10:27:01.073Z,20.37
2023-01-28T10:29:34.915Z,19.40
2023-01-28T10:32:07.322Z,17.35
2023-01-28T10:37:03.170Z,19.12
2023-01-28T10:39:31.471Z,25.82
2023-01-28T10:41:59.757Z,20.37
2023-01-28T10:44:30.404Z,26.10
2023-01-28T10:47:00.146Z,19.37
2023-01-28T10:49:29.902Z,14.90
2023-01-28T10:51:58.797Z,18.92
2023-01-28T10:54:28.117Z,18.00
2023-01-28T10:57:03.970Z,17.35
2023-01-28T10:59:35.702Z,17.73
2023-01-28T11:02:05.522Z,19.32
2023-01-28T11:04:36.338Z,15.65
2023-01-28T11:07:08.738Z,17.95
2023-01-28T11:12:23.731Z,20.08
2023-01-28T11:14:53.194Z,21.75
2023-01-28T11:17:24.507Z,16.97
2023-01-28T11:19:54.349Z,21.30
2023-01-28T11:22:24.132Z,18.67
2023-01-28T11:24:52.330Z,21.17
2023-01-28T11:27:21.817Z,19.70
2023-01-28T11:29:50.213Z,22.35
2023-01-28T11:32:19.985Z,20.88
2023-01-28T11:34:52.634Z,18.32
2023-01-28T11:37:25.128Z,23.62
2023-01-28T11:42:21.731Z,23.27
2023-01-28T11:44:50.140Z,22.13
2023-01-28T11:47:24.397Z,18.95
2023-01-28T11:49:54.152Z,21.37
2023-01-28T11:52:23.910Z,19.90
2023-01-28T11:54:53.659Z,21.77
2023-01-28T11:57:35.201Z,19.62
2023-01-28T12:00:05.240Z,20.72
2023-01-28T12:02:40.682Z,25.80
2023-01-28T12:05:26.610Z,22.05
2023-01-28T12:07:59.199Z,20.12
2023-01-28T12:10:31.724Z,21.62
2023-01-28T12:15:29.918Z,27.37
2023-01-28T12:18:14.752Z,24.82
2023-01-28T12:20:47.145Z,20.00
2023-01-28T12:25:53.180Z,21.68
2023-01-28T12:28:23.383Z,19.32
2023-01-28T12:30:55.694Z,19.40
2023-01-28T12:33:25.494Z,19.92
2023-01-28T12:36:07.262Z,22.85
2023-01-28T12:38:42.991Z,27.60
2023-01-28T12:41:18.856Z,21.52
2023-01-28T12:43:48.572Z,24.95
2023-01-28T12:46:30.295Z,22.85
2023-01-28T12:49:02.976Z,24.53
2023-01-28T12:51:35.411Z,23.27
2023-01-28T12:56:36.109Z,24.77
2023-01-28T12:59:05.885Z,22.30
2023-01-28T13:01:44.732Z,21.42
2023-01-28T13:04:23.493Z,21.37
2023-01-28T13:06:53.244Z,20.08
2023-01-28T13:09:23.113Z,15.98
2023-01-28T13:11:52.677Z,16.97
2023-01-28T13:14:22.442Z,18.70
2023-01-28T13:16:50.820Z,19.57
2023-01-28T13:19:20.568Z,19.23
2023-01-28T13:21:49.928Z,8.70
2023-01-28T13:24:19.828Z,16.42
2023-01-28T13:26:52.437Z,18.82
2023-01-28T13:29:22.179Z,17.55
2023-01-28T13:31:52.423Z,15.72
2023-01-28T13:34:32.863Z,16.05
2023-01-28T13:37:04.989Z,19.48
2023-01-28T13:39:34.131Z,16.85
2023-01-28T13:42:09.697Z,15.40
2023-01-28T13:44:38.750Z,15.72
2023-01-28T13:47:11.264Z,16.23
2023-01-28T13:49:43.991Z,17.95
2023-01-28T13:52:13.765Z,14.68
2023-01-28T13:54:43.515Z,14.35
2023-01-28T13:57:29.466Z,15.15
2023-01-28T14:00:01.915Z,16.17
2023-01-28T14:02:31.776Z,17.07
2023-01-28T14:05:07.533Z,16.52
2023-01-28T14:07:37.269Z,16.37
2023-01-28T14:10:07.070Z,16.67
2023-01-28T14:12:54.848Z,18.82
2023-01-28T14:15:24.655Z,15.35
2023-01-28T14:17:53.995Z,19.17
2023-01-28T14:20:37.645Z,16.75
2023-01-28T14:23:07.049Z,16.80
2023-01-28T14:25:39.496Z,17.95
2023-01-28T14:28:09.234Z,20.52
2023-01-28T14:30:39.000Z,17.95
2023-01-28T14:33:11.817Z,20.10
2023-01-28T14:35:41.575Z,15.60
2023-01-28T14:38:11.353Z,16.40
2023-01-28T14:40:40.584Z,15.70
2023-01-28T14:43:09.743Z,17.15
2023-01-28T14:45:51.577Z,20.52
2023-01-28T14:48:27.056Z,16.83
2023-01-28T14:51:11.876Z,17.77
2023-01-28T14:53:58.124Z,17.75
2023-01-28T14:56:30.540Z,22.87
2023-01-28T15:01:27.424Z,22.40
2023-01-28T15:03:55.669Z,36.85
2023-01-28T15:06:25.617Z,36.00
2023-01-28T15:08:54.393Z,33.40
2023-01-28T15:11:24.489Z,25.10
2023-01-28T15:13:57.193Z,34.63
2023-01-28T15:16:28.705Z,32.78
2023-01-28T15:18:57.532Z,19.77
2023-01-28T15:21:26.559Z,25.52
2023-01-28T15:23:56.354Z,25.48
2023-01-28T15:26:26.080Z,21.50
2023-01-28T15:28:55.121Z,19.12
2023-01-28T15:31:24.925Z,20.90
2023-01-28T15:34:03.897Z,20.72
2023-01-28T15:36:32.641Z,18.07
2023-01-28T15:39:00.862Z,19.42
2023-01-28T15:41:30.616Z,20.72
2023-01-28T15:43:58.881Z,25.48
2023-01-28T15:46:27.161Z,24.32
2023-01-28T15:48:56.958Z,22.42
2023-01-28T15:51:26.562Z,21.52
2023-01-28T15:53:56.274Z,22.87
2023-01-28T15:56:26.656Z,23.27
2023-01-28T15:58:55.912Z,22.17
2023-01-28T16:01:24.304Z,20.82
2023-01-28T16:04:02.766Z,23.07
2023-01-28T16:06:35.392Z,24.95
2023-01-28T16:09:05.142Z,22.60
2023-01-28T16:11:34.950Z,23.45
2023-01-28T16:14:03.420Z,25.15
2023-01-28T16:16:32.934Z,28.83
2023-01-28T16:19:03.008Z,34.67
2023-01-28T16:21:34.243Z,29.70
2023-01-28T16:24:07.385Z,27.50
2023-01-28T16:26:36.608Z,32.67
2023-01-28T16:29:15.399Z,32.45
2023-01-28T16:31:43.681Z,34.45
2023-01-28T16:34:11.972Z,38.02
2023-01-28T16:36:40.148Z,36.80
2023-01-28T16:39:08.360Z,39.67
2023-01-28T16:41:38.488Z,128.93
2023-01-28T16:44:07.088Z,46.35
2023-01-28T16:46:35.365Z,45.08
2023-01-28T16:49:03.627Z,45.40
2023-01-28T16:51:32.014Z,45.65
2023-01-28T16:54:00.297Z,46.75
2023-01-28T16:56:44.059Z,48.30
2023-01-28T16:58:59.319Z,47.45
2023-01-28T17:01:27.677Z,47.35
2023-01-28T17:03:56.546Z,48.63
2023-01-28T17:06:24.838Z,44.10
2023-01-28T17:08:53.079Z,48.33
2023-01-28T17:11:21.292Z,46.70
2023-01-28T17:13:49.473Z,45.08
2023-01-28T17:16:17.752Z,46.63
2023-01-28T17:18:47.976Z,53.42
2023-01-28T17:21:15.781Z,49.55
2023-01-28T17:23:44.151Z,45.90
2023-01-28T17:26:14.001Z,50.90
2023-01-28T17:28:42.494Z,52.78
2023-01-28T17:31:14.505Z,50.20
2023-01-28T17:33:42.770Z,50.70
2023-01-28T17:36:11.167Z,47.67
2023-01-28T17:38:39.547Z,55.78
2023-01-28T17:41:09.331Z,57.95
2023-01-28T17:43:37.627Z,57.93
2023-01-28T17:46:12.623Z,56.02
2023-01-28T17:48:41.066Z,57.78
2023-01-28T17:51:09.271Z,57.27
2023-01-28T17:53:37.486Z,58.10
2023-01-28T17:56:06.329Z,57.00
2023-01-28T17:58:34.555Z,59.35
2023-01-28T18:01:04.308Z,53.40
2023-01-28T18:03:32.573Z,57.25
2023-01-28T18:06:00.937Z,55.28
2023-01-28T18:08:29.137Z,54.98
2023-01-28T18:10:57.422Z,56.95
2023-01-28T18:13:26.879Z,52.27
2023-01-28T18:15:55.140Z,56.23
2023-01-28T18:18:23.337Z,52.80
2023-01-28T18:20:58.048Z,55.65
2023-01-28T18:23:26.315Z,59.15
2023-01-28T18:25:57.919Z,62.93
2023-01-28T18:28:26.722Z,62.43
2023-01-28T18:30:55.067Z,62.15
2023-01-28T18:33:24.086Z,60.28
2023-01-28T18:35:52.333Z,67.30
2023-01-28T18:38:20.539Z,62.50
2023-01-28T18:40:48.759Z,66.40
2023-01-28T18:43:16.968Z,66.72
2023-01-28T18:45:46.878Z,68.47
2023-01-28T18:48:15.115Z,69.53
2023-01-28T18:50:44.811Z,70.97
2023-01-28T18:53:13.054Z,65.75
2023-01-28T18:55:41.287Z,72.90
2023-01-28T18:58:09.529Z,73.65
2023-01-28T19:00:37.828Z,68.67
2023-01-28T19:03:06.203Z,69.30
2023-01-28T19:05:37.890Z,66.20
2023-01-28T19:08:06.860Z,63.15
2023-01-28T19:10:35.063Z,65.37
2023-01-28T19:13:03.767Z,69.97
2023-01-28T19:15:32.062Z,68.17
2023-01-28T19:18:01.947Z,71.12
2023-01-28T19:20:30.365Z,73.37
2023-01-28T19:22:58.592Z,72.95
2023-01-28T19:25:26.784Z,66.92
2023-01-28T19:27:55.039Z,71.17
2023-01-28T19:30:23.218Z,67.37
2023-01-28T19:32:51.900Z,67.67
2023-01-28T19:35:20.405Z,71.65
2023-01-28T19:37:48.633Z,70.62
2023-01-28T19:40:17.007Z,73.12
2023-01-28T19:42:45.682Z,69.58
2023-01-28T19:45:13.965Z,72.30
2023-01-28T19:47:42.304Z,73.57
2023-01-28T19:50:10.844Z,73.17
2023-01-28T19:52:39.073Z,77.60
2023-01-28T19:55:07.876Z,73.83
2023-01-28T19:57:36.158Z,73.45
2023-01-28T20:00:04.571Z,75.40
2023-01-28T20:02:33.361Z,80.70
2023-01-28T20:05:01.699Z,82.55
2023-01-28T20:07:29.948Z,75.10
2023-01-28T20:09:58.231Z,74.72
2023-01-28T20:12:26.465Z,79.35
2023-01-28T20:14:54.823Z,73.02
2023-01-28T20:17:23.098Z,77.92
2023-01-28T20:19:51.283Z,78.90
2023-01-28T20:22:19.540Z,82.17
2023-01-28T20:24:48.949Z,80.57
2023-01-28T20:27:17.212Z,76.72
2023-01-28T20:29:45.428Z,75.87
2023-01-28T20:32:17.774Z,77.40
2023-01-28T20:34:43.529Z,75.65
2023-01-28T20:37:11.786Z,74.03
2023-01-28T20:39:40.042Z,76.47
2023-01-28T20:42:10.025Z,80.95
2023-01-28T20:44:38.230Z,78.17
2023-01-28T20:47:06.479Z,77.62
2023-01-28T20:49:34.716Z,81.30
2023-01-28T20:52:03.732Z,78.65
2023-01-28T20:54:32.008Z,84.77
2023-01-28T20:57:00.315Z,79.45
2023-01-28T20:59:29.092Z,83.22
2023-01-28T21:01:57.301Z,95.47
2023-01-28T21:04:25.556Z,111.85
2023-01-28T21:06:53.889Z,112.97
2023-01-28T21:09:23.723Z,112.70
2023-01-28T21:11:51.982Z,102.55
2023-01-28T21:14:20.196Z,98.20
2023-01-28T21:16:50.171Z,100.12
2023-01-28T21:19:18.382Z,93.78
2023-01-28T21:21:46.915Z,90.72
2023-01-28T21:24:15.663Z,94.10
2023-01-28T21:26:43.859Z,104.05
2023-01-28T21:29:14.077Z,107.63
2023-01-28T21:31:44.299Z,111.85
2023-01-28T21:34:14.344Z,116.00
2023-01-28T21:36:43.203Z,102.53
2023-01-28T21:39:13.215Z,98.30
2023-01-28T21:41:41.801Z,93.82
2023-01-28T21:44:12.322Z,101.60
2023-01-28T21:46:41.011Z,105.78
2023-01-28T21:49:11.433Z,108.25
2023-01-28T21:51:40.287Z,104.00
2023-01-28T21:54:11.861Z,109.70
2023-01-28T21:56:40.765Z,108.85
2023-01-28T21:59:28.998Z,108.65
2023-01-28T22:02:06.234Z,110.78
2023-01-28T22:04:37.740Z,110.42
2023-01-28T22:07:08.750Z,110.78
2023-01-28T22:09:37.858Z,104.35
2023-01-28T22:12:09.799Z,104.97
2023-01-28T22:14:39.689Z,107.20
2023-01-28T22:17:10.642Z,97.40
2023-01-28T22:19:39.450Z,95.45
2023-01-28T22:22:08.548Z,92.75
2023-01-28T22:24:37.164Z,96.32
2023-01-28T22:27:05.782Z,92.33
2023-01-28T22:29:35.421Z,94.45
2023-01-28T22:32:04.875Z,80.42
2023-01-28T22:34:33.539Z,78.83
2023-01-28T22:37:02.144Z,79.80
2023-01-28T22:39:30.309Z,85.35
2023-01-28T22:41:58.868Z,93.07
2023-01-28T22:44:27.094Z,90.15
2023-01-28T22:46:55.473Z,92.17
2023-01-28T22:49:25.395Z,88.50
2023-01-28T22:51:53.950Z,83.00
2023-01-28T22:54:22.545Z,84.15
2023-01-28T22:56:51.094Z,87.95
2023-01-28T22:59:19.322Z,92.42
2023-01-28T23:01:47.933Z,87.53
2023-01-28T23:04:16.196Z,94.20
2023-01-28T23:06:44.718Z,91.37
2023-01-28T23:09:12.993Z,89.77
2023-01-28T23:11:41.558Z,87.37
2023-01-28T23:14:28.455Z,91.63
2023-01-28T23:17:14.584Z,97.15
2023-01-28T23:20:00.617Z,97.78
2023-01-28T23:22:47.934Z,100.00
2023-01-28T23:25:17.046Z,84.42
2023-01-28T23:27:45.844Z,99.60
2023-01-28T23:30:15.427Z,102.80
2023-01-28T23:32:45.607Z,92.12
2023-01-28T23:35:14.233Z,103.42
2023-01-28T23:37:42.831Z,94.77
2023-01-28T23:40:12.889Z,94.03
2023-01-28T23:42:41.846Z,87.72
2023-01-28T23:45:11.041Z,86.10
2023-01-28T23:47:39.581Z,88.67
2023-01-28T23:50:09.396Z,86.80
2023-01-28T23:52:37.953Z,87.85
2023-01-28T23:55:07.271Z,82.37
2023-01-28T23:57:37.380Z,91.00
